createdAt,value
2022-08-26T00:03:49.287Z,11.91
2022-08-26T00:18:48.985Z,11.27
2022-08-26T00:33:48.603Z,11.79
2022-08-26T00:48:49.442Z,12.6
2022-08-26T01:03:48.895Z,11.98
2022-08-26T01:18:49.110Z,12.14
2022-08-26T01:33:49.085Z,12.34
2022-08-26T01:48:49.341Z,12.68
2022-08-26T02:03:48.647Z,11.68
2022-08-26T02:18:49.435Z,15.88
2022-08-26T02:33:49.274Z,11.78
2022-08-26T02:48:49.400Z,11.14
2022-08-26T03:03:49.296Z,12.24
2022-08-26T03:18:52.141Z,12.22
2022-08-26T03:33:49.076Z,11.51
2022-08-26T03:48:48.626Z,11.45
2022-08-26T04:03:49.033Z,11.98
2022-08-26T04:18:48.844Z,11.86
2022-08-26T04:33:49.670Z,11.64
2022-08-26T04:48:49.143Z,11.39
2022-08-26T05:03:49.371Z,11.2
2022-08-26T05:18:49.117Z,11.7
2022-08-26T05:33:48.955Z,11.11
2022-08-26T05:48:49.479Z,10.59
2022-08-26T06:03:48.958Z,11.49
2022-08-26T06:18:48.917Z,10.22
2022-08-26T06:33:49.210Z,9.68
2022-08-26T06:48:48.544Z,9.76
2022-08-26T07:03:48.752Z,9.31
2022-08-26T07:18:48.774Z,9.47
2022-08-26T07:33:48.816Z,9.13
2022-08-26T07:48:48.618Z,9.74
2022-08-26T08:03:50.486Z,9.67
2022-08-26T08:18:49.096Z,9.37
2022-08-26T08:33:48.990Z,9.63
2022-08-26T08:48:49.115Z,10.87
2022-08-26T09:03:49.152Z,9.77
2022-08-26T09:18:48.960Z,9.37
2022-08-26T09:33:48.665Z,9.26
2022-08-26T09:48:51.722Z,7.99
2022-08-26T10:03:49.322Z,8.17
2022-08-26T10:18:48.742Z,8.28
2022-08-26T10:33:48.817Z,17
2022-08-26T10:48:49.071Z,10.12
2022-08-26T11:03:48.866Z,8.45
2022-08-26T11:18:48.915Z,8.45
2022-08-26T11:33:49.021Z,8.28
2022-08-26T11:48:49.033Z,7.65
2022-08-26T12:03:49.353Z,8.74
2022-08-26T12:18:49.838Z,10.44
2022-08-26T12:33:48.656Z,10.49
2022-08-26T12:48:48.765Z,9.44
2022-08-26T13:03:49.038Z,9.1
2022-08-26T13:18:49.350Z,8.38
2022-08-26T13:33:48.493Z,8.28
2022-08-26T13:48:49.284Z,8.5
2022-08-26T14:03:49.309Z,8.23
2022-08-26T14:18:50.840Z,9.91
2022-08-26T14:33:49.006Z,10.63
2022-08-26T14:48:48.950Z,12.59
2022-08-26T15:03:49.581Z,11.77
2022-08-26T15:18:49.450Z,11.92
2022-08-26T15:33:48.960Z,11.37
2022-08-26T15:48:49.301Z,10.67
2022-08-26T16:03:53.476Z,12.33
2022-08-26T16:18:54.180Z,11.58
2022-08-26T16:33:49.290Z,11.72
2022-08-26T16:48:49.208Z,10.66
2022-08-26T17:03:51.143Z,11.76
2022-08-26T17:18:50.948Z,11.32
2022-08-26T17:33:53.616Z,12.27
2022-08-26T17:48:49.419Z,14.86
2022-08-26T18:03:49.418Z,11.88
2022-08-26T18:18:49.778Z,13.77
2022-08-26T18:33:49.794Z,11.97
2022-08-26T18:48:50.738Z,12.67
2022-08-26T19:03:49.380Z,21.14
2022-08-26T19:18:49.047Z,16.65
2022-08-26T19:33:49.180Z,13.53
2022-08-26T19:48:50.799Z,13.13
2022-08-26T20:03:49.276Z,12.22
2022-08-26T20:18:49.568Z,12.18
2022-08-26T20:33:48.923Z,12.78
2022-08-26T20:48:49.565Z,13.2
2022-08-26T21:03:49.340Z,16.79
2022-08-26T21:18:49.798Z,21.26
2022-08-26T21:33:48.793Z,13.86
2022-08-26T21:48:50.846Z,17.66
2022-08-26T22:03:49.156Z,14.67
2022-08-26T22:18:49.128Z,14.84
2022-08-26T22:33:48.658Z,15.28
2022-08-26T22:48:51.959Z,14.26
2022-08-26T23:03:49.079Z,15.83
2022-08-26T23:18:49.404Z,14.8
2022-08-26T23:33:49.256Z,9.2
2022-08-26T23:48:49.565Z,8.5
